sensor_id;sensor_type;location;lat;lon;timestamp;P1;durP1;ratioP1;P2;durP2;ratioP2
5493;SDS011;2769;49.864;8.656;2023-01-19T00:01:24;8.63;;;6.17;;
5493;SDS011;2769;49.864;8.656;2023-01-19T00:03:54;12.47;;;6.43;;
5493;SDS011;2769;49.864;8.656;2023-01-19T00:06:22;13.63;;;6.70;;
5493;SDS011;2769;49.864;8.656;2023-01-19T00:08:50;9.50;;;6.03;;
5493;SDS011;2769;49.864;8.656;2023-01-19T00:11:18;14.10;;;7.07;;
5493;SDS011;2769;49.864;8.656;2023-01-19T00:13:46;11.63;;;6.23;;
5493;SDS011;2769;49.864;8.656;2023-01-19T00:16:16;10.07;;;6.57;;
5493;SDS011;2769;49.864;8.656;2023-01-19T00:18:45;11.83;;;6.97;;
5493;SDS011;2769;49.864;8.656;2023-01-19T00:21:14;9.57;;;6.63;;
5493;SDS011;2769;49.864;8.656;2023-01-19T00:23:42;12.80;;;6.27;;
5493;SDS011;2769;49.864;8.656;2023-01-19T00:26:13;16.23;;;7.47;;
5493;SDS011;2769;49.864;8.656;2023-01-19T00:28:42;11.77;;;7.23;;
5493;SDS011;2769;49.864;8.656;2023-01-19T00:31:10;11.63;;;6.77;;
5493;SDS011;2769;49.864;8.656;2023-01-19T00:33:38;9.63;;;7.47;;
5493;SDS011;2769;49.864;8.656;2023-01-19T00:36:07;10.23;;;7.00;;
5493;SDS011;2769;49.864;8.656;2023-01-19T00:38:37;12.23;;;7.03;;
5493;SDS011;2769;49.864;8.656;2023-01-19T00:41:05;14.33;;;7.10;;
5493;SDS011;2769;49.864;8.656;2023-01-19T00:43:33;11.23;;;6.80;;
5493;SDS011;2769;49.864;8.656;2023-01-19T00:46:00;18.80;;;7.80;;
5493;SDS011;2769;49.864;8.656;2023-01-19T00:48:28;8.83;;;6.80;;
5493;SDS011;2769;49.864;8.656;2023-01-19T00:50:56;15.33;;;7.57;;
5493;SDS011;2769;49.864;8.656;2023-01-19T00:53:25;14.70;;;7.73;;
5493;SDS011;2769;49.864;8.656;2023-01-19T00:55:59;11.27;;;6.97;;
5493;SDS011;2769;49.864;8.656;2023-01-19T00:58:26;24.03;;;7.87;;
5493;SDS011;2769;49.864;8.656;2023-01-19T01:00:54;11.17;;;6.80;;
5493;SDS011;2769;49.864;8.656;2023-01-19T01:03:29;10.90;;;6.97;;
5493;SDS011;2769;49.864;8.656;2023-01-19T01:05:57;10.57;;;6.90;;
5493;SDS011;2769;49.864;8.656;2023-01-19T01:08:25;12.17;;;6.70;;
5493;SDS011;2769;49.864;8.656;2023-01-19T01:10:53;15.53;;;7.27;;
5493;SDS011;2769;49.864;8.656;2023-01-19T01:13:22;12.07;;;7.50;;
5493;SDS011;2769;49.864;8.656;2023-01-19T01:15:53;14.40;;;7.70;;
5493;SDS011;2769;49.864;8.656;2023-01-19T01:18:22;16.80;;;7.83;;
5493;SDS011;2769;49.864;8.656;2023-01-19T01:20:50;12.27;;;6.80;;
5493;SDS011;2769;49.864;8.656;2023-01-19T01:23:21;15.07;;;7.90;;
5493;SDS011;2769;49.864;8.656;2023-01-19T01:25:49;14.07;;;7.53;;
5493;SDS011;2769;49.864;8.656;2023-01-19T01:28:17;12.13;;;7.47;;
5493;SDS011;2769;49.864;8.656;2023-01-19T01:30:46;11.20;;;7.63;;
5493;SDS011;2769;49.864;8.656;2023-01-19T01:33:14;12.87;;;8.07;;
5493;SDS011;2769;49.864;8.656;2023-01-19T01:36:02;11.40;;;7.40;;
5493;SDS011;2769;49.864;8.656;2023-01-19T01:38:30;12.97;;;6.60;;
5493;SDS011;2769;49.864;8.656;2023-01-19T01:40:58;12.23;;;8.43;;
5493;SDS011;2769;49.864;8.656;2023-01-19T01:43:39;13.87;;;7.30;;
5493;SDS011;2769;49.864;8.656;2023-01-19T01:46:11;12.60;;;7.80;;
5493;SDS011;2769;49.864;8.656;2023-01-19T01:48:42;12.00;;;6.77;;
5493;SDS011;2769;49.864;8.656;2023-01-19T01:51:12;13.73;;;7.97;;
5493;SDS011;2769;49.864;8.656;2023-01-19T01:53:56;14.20;;;8.20;;
5493;SDS011;2769;49.864;8.656;2023-01-19T01:56:30;12.43;;;7.30;;
5493;SDS011;2769;49.864;8.656;2023-01-19T01:58:59;13.53;;;7.43;;
5493;SDS011;2769;49.864;8.656;2023-01-19T02:01:31;15.33;;;9.13;;
5493;SDS011;2769;49.864;8.656;2023-01-19T02:04:16;12.10;;;7.93;;
5493;SDS011;2769;49.864;8.656;2023-01-19T02:06:44;13.10;;;8.70;;
5493;SDS011;2769;49.864;8.656;2023-01-19T02:09:30;15.70;;;7.70;;
5493;SDS011;2769;49.864;8.656;2023-01-19T02:12:19;16.00;;;8.87;;
5493;SDS011;2769;49.864;8.656;2023-01-19T02:15:05;13.00;;;7.53;;
5493;SDS011;2769;49.864;8.656;2023-01-19T02:17:42;16.63;;;8.20;;
5493;SDS011;2769;49.864;8.656;2023-01-19T02:20:10;12.77;;;8.63;;
5493;SDS011;2769;49.864;8.656;2023-01-19T02:22:41;14.73;;;9.17;;
5493;SDS011;2769;49.864;8.656;2023-01-19T02:25:13;15.77;;;9.37;;
5493;SDS011;2769;49.864;8.656;2023-01-19T02:27:41;15.60;;;8.97;;
5493;SDS011;2769;49.864;8.656;2023-01-19T02:30:09;16.27;;;8.47;;
5493;SDS011;2769;49.864;8.656;2023-01-19T02:32:38;12.53;;;8.20;;
5493;SDS011;2769;49.864;8.656;2023-01-19T02:35:06;14.77;;;9.17;;
5493;SDS011;2769;49.864;8.656;2023-01-19T02:37:35;16.93;;;9.37;;
5493;SDS011;2769;49.864;8.656;2023-01-19T02:40:07;14.87;;;8.57;;
5493;SDS011;2769;49.864;8.656;2023-01-19T02:42:39;12.77;;;9.00;;
5493;SDS011;2769;49.864;8.656;2023-01-19T02:45:10;12.63;;;9.33;;
5493;SDS011;2769;49.864;8.656;2023-01-19T02:47:41;20.13;;;8.53;;
5493;SDS011;2769;49.864;8.656;2023-01-19T02:53:20;16.03;;;9.37;;
5493;SDS011;2769;49.864;8.656;2023-01-19T02:56:28;12.23;;;8.50;;
5493;SDS011;2769;49.864;8.656;2023-01-19T02:59:09;14.63;;;8.70;;
5493;SDS011;2769;49.864;8.656;2023-01-19T03:01:55;14.07;;;9.03;;
5493;SDS011;2769;49.864;8.656;2023-01-19T03:04:32;15.27;;;9.60;;
5493;SDS011;2769;49.864;8.656;2023-01-19T03:07:10;18.50;;;10.10;;
5493;SDS011;2769;49.864;8.656;2023-01-19T03:09:41;16.57;;;9.80;;
5493;SDS011;2769;49.864;8.656;2023-01-19T03:12:13;15.13;;;9.43;;
5493;SDS011;2769;49.864;8.656;2023-01-19T03:14:48;16.33;;;9.80;;
5493;SDS011;2769;49.864;8.656;2023-01-19T03:17:17;16.80;;;9.40;;
5493;SDS011;2769;49.864;8.656;2023-01-19T03:19:47;16.80;;;9.57;;
5493;SDS011;2769;49.864;8.656;2023-01-19T03:22:16;18.70;;;11.03;;
5493;SDS011;2769;49.864;8.656;2023-01-19T03:24:47;18.80;;;9.27;;
5493;SDS011;2769;49.864;8.656;2023-01-19T03:27:16;20.27;;;9.40;;
5493;SDS011;2769;49.864;8.656;2023-01-19T03:29:45;18.47;;;9.90;;
5493;SDS011;2769;49.864;8.656;2023-01-19T03:32:18;17.23;;;10.53;;
5493;SDS011;2769;49.864;8.656;2023-01-19T03:34:48;17.93;;;11.03;;
5493;SDS011;2769;49.864;8.656;2023-01-19T03:37:16;15.17;;;10.20;;
5493;SDS011;2769;49.864;8.656;2023-01-19T03:39:46;18.30;;;10.43;;
5493;SDS011;2769;49.864;8.656;2023-01-19T03:42:14;21.80;;;11.10;;
5493;SDS011;2769;49.864;8.656;2023-01-19T03:44:43;16.93;;;10.10;;
5493;SDS011;2769;49.864;8.656;2023-01-19T03:47:17;20.77;;;11.80;;
5493;SDS011;2769;49.864;8.656;2023-01-19T03:49:46;19.07;;;11.37;;
5493;SDS011;2769;49.864;8.656;2023-01-19T03:52:14;19.20;;;10.77;;
5493;SDS011;2769;49.864;8.656;2023-01-19T03:54:42;21.93;;;12.27;;
5493;SDS011;2769;49.864;8.656;2023-01-19T03:57:10;16.80;;;10.00;;
5493;SDS011;2769;49.864;8.656;2023-01-19T03:59:38;20.23;;;11.27;;
5493;SDS011;2769;49.864;8.656;2023-01-19T04:02:06;19.57;;;9.67;;
5493;SDS011;2769;49.864;8.656;2023-01-19T04:04:35;18.53;;;10.67;;
5493;SDS011;2769;49.864;8.656;2023-01-19T04:07:03;22.47;;;12.10;;
5493;SDS011;2769;49.864;8.656;2023-01-19T04:09:31;18.43;;;11.60;;
5493;SDS011;2769;49.864;8.656;2023-01-19T04:11:59;19.23;;;11.80;;
5493;SDS011;2769;49.864;8.656;2023-01-19T04:14:29;23.90;;;11.90;;
5493;SDS011;2769;49.864;8.656;2023-01-19T04:16:57;16.90;;;11.13;;
5493;SDS011;2769;49.864;8.656;2023-01-19T04:19:24;24.80;;;11.13;;
5493;SDS011;2769;49.864;8.656;2023-01-19T04:21:54;23.63;;;11.63;;
5493;SDS011;2769;49.864;8.656;2023-01-19T04:24:25;22.40;;;12.30;;
5493;SDS011;2769;49.864;8.656;2023-01-19T04:26:53;19.47;;;11.20;;
5493;SDS011;2769;49.864;8.656;2023-01-19T04:29:21;18.90;;;11.10;;
5493;SDS011;2769;49.864;8.656;2023-01-19T04:31:49;19.23;;;11.73;;
5493;SDS011;2769;49.864;8.656;2023-01-19T04:34:17;19.13;;;11.30;;
5493;SDS011;2769;49.864;8.656;2023-01-19T04:36:45;22.90;;;12.50;;
5493;SDS011;2769;49.864;8.656;2023-01-19T04:39:17;19.90;;;11.47;;
5493;SDS011;2769;49.864;8.656;2023-01-19T04:41:45;20.07;;;11.60;;
5493;SDS011;2769;49.864;8.656;2023-01-19T04:44:13;19.90;;;11.10;;
5493;SDS011;2769;49.864;8.656;2023-01-19T04:46:41;22.57;;;11.60;;
5493;SDS011;2769;49.864;8.656;2023-01-19T04:49:09;16.67;;;11.20;;
5493;SDS011;2769;49.864;8.656;2023-01-19T04:51:37;16.30;;;10.73;;
5493;SDS011;2769;49.864;8.656;2023-01-19T04:54:05;17.97;;;10.90;;
5493;SDS011;2769;49.864;8.656;2023-01-19T04:56:36;18.70;;;11.77;;
5493;SDS011;2769;49.864;8.656;2023-01-19T04:59:06;18.13;;;11.10;;
5493;SDS011;2769;49.864;8.656;2023-01-19T05:01:34;17.07;;;10.80;;
5493;SDS011;2769;49.864;8.656;2023-01-19T05:04:02;19.57;;;11.60;;
5493;SDS011;2769;49.864;8.656;2023-01-19T05:06:32;17.80;;;11.17;;
5493;SDS011;2769;49.864;8.656;2023-01-19T05:09:00;17.80;;;10.60;;
5493;SDS011;2769;49.864;8.656;2023-01-19T05:11:28;22.80;;;12.63;;
5493;SDS011;2769;49.864;8.656;2023-01-19T05:13:57;18.37;;;9.80;;
5493;SDS011;2769;49.864;8.656;2023-01-19T05:16:25;20.80;;;11.63;;
5493;SDS011;2769;49.864;8.656;2023-01-19T05:18:53;16.77;;;11.20;;
5493;SDS011;2769;49.864;8.656;2023-01-19T05:21:22;15.60;;;9.23;;
5493;SDS011;2769;49.864;8.656;2023-01-19T05:23:50;18.10;;;10.70;;
5493;SDS011;2769;49.864;8.656;2023-01-19T05:26:17;24.13;;;11.57;;
5493;SDS011;2769;49.864;8.656;2023-01-19T05:28:45;14.30;;;9.70;;
5493;SDS011;2769;49.864;8.656;2023-01-19T05:31:15;22.40;;;11.57;;
5493;SDS011;2769;49.864;8.656;2023-01-19T05:33:45;16.97;;;10.80;;
5493;SDS011;2769;49.864;8.656;2023-01-19T05:36:13;21.97;;;12.37;;
5493;SDS011;2769;49.864;8.656;2023-01-19T05:38:41;17.63;;;11.00;;
5493;SDS011;2769;49.864;8.656;2023-01-19T05:41:09;17.30;;;11.13;;
5493;SDS011;2769;49.864;8.656;2023-01-19T05:43:37;16.80;;;10.70;;
5493;SDS011;2769;49.864;8.656;2023-01-19T05:46:05;15.93;;;11.00;;
5493;SDS011;2769;49.864;8.656;2023-01-19T05:48:34;18.20;;;11.27;;
5493;SDS011;2769;49.864;8.656;2023-01-19T05:51:02;16.20;;;10.80;;
5493;SDS011;2769;49.864;8.656;2023-01-19T05:53:30;16.33;;;9.73;;
5493;SDS011;2769;49.864;8.656;2023-01-19T05:55:59;17.80;;;10.83;;
5493;SDS011;2769;49.864;8.656;2023-01-19T05:58:27;18.83;;;10.67;;
5493;SDS011;2769;49.864;8.656;2023-01-19T06:00:55;17.40;;;10.50;;
5493;SDS011;2769;49.864;8.656;2023-01-19T06:03:23;22.70;;;11.50;;
5493;SDS011;2769;49.864;8.656;2023-01-19T06:05:52;22.37;;;11.80;;
5493;SDS011;2769;49.864;8.656;2023-01-19T06:08:23;16.77;;;10.33;;
5493;SDS011;2769;49.864;8.656;2023-01-19T06:10:51;18.30;;;11.20;;
5493;SDS011;2769;49.864;8.656;2023-01-19T06:13:19;20.27;;;10.50;;
5493;SDS011;2769;49.864;8.656;2023-01-19T06:15:47;16.47;;;10.80;;
5493;SDS011;2769;49.864;8.656;2023-01-19T06:18:15;21.17;;;12.07;;
5493;SDS011;2769;49.864;8.656;2023-01-19T06:20:43;16.80;;;10.77;;
5493;SDS011;2769;49.864;8.656;2023-01-19T06:23:12;17.77;;;10.10;;
5493;SDS011;2769;49.864;8.656;2023-01-19T06:25:40;19.73;;;10.80;;
5493;SDS011;2769;49.864;8.656;2023-01-19T06:28:08;16.90;;;11.10;;
5493;SDS011;2769;49.864;8.656;2023-01-19T06:30:38;18.73;;;11.23;;
5493;SDS011;2769;49.864;8.656;2023-01-19T06:33:06;17.67;;;10.90;;
5493;SDS011;2769;49.864;8.656;2023-01-19T06:35:36;17.10;;;10.70;;
5493;SDS011;2769;49.864;8.656;2023-01-19T06:38:04;25.13;;;11.73;;
5493;SDS011;2769;49.864;8.656;2023-01-19T06:40:33;15.73;;;10.00;;
5493;SDS011;2769;49.864;8.656;2023-01-19T06:43:01;21.30;;;10.20;;
5493;SDS011;2769;49.864;8.656;2023-01-19T06:45:29;16.47;;;10.43;;
5493;SDS011;2769;49.864;8.656;2023-01-19T06:48:00;18.07;;;10.43;;
5493;SDS011;2769;49.864;8.656;2023-01-19T06:50:29;18.73;;;10.30;;
5493;SDS011;2769;49.864;8.656;2023-01-19T06:52:56;17.37;;;11.07;;
5493;SDS011;2769;49.864;8.656;2023-01-19T06:55:26;21.63;;;11.50;;
5493;SDS011;2769;49.864;8.656;2023-01-19T06:57:56;18.83;;;11.20;;
5493;SDS011;2769;49.864;8.656;2023-01-19T07:00:25;16.13;;;10.73;;
5493;SDS011;2769;49.864;8.656;2023-01-19T07:02:53;16.73;;;11.23;;
5493;SDS011;2769;49.864;8.656;2023-01-19T07:05:21;17.80;;;11.23;;
5493;SDS011;2769;49.864;8.656;2023-01-19T07:07:50;21.00;;;12.37;;
5493;SDS011;2769;49.864;8.656;2023-01-19T07:10:18;18.17;;;11.50;;
5493;SDS011;2769;49.864;8.656;2023-01-19T07:12:46;18.87;;;11.83;;
5493;SDS011;2769;49.864;8.656;2023-01-19T07:15:16;18.50;;;11.67;;
5493;SDS011;2769;49.864;8.656;2023-01-19T07:17:47;17.50;;;11.23;;
5493;SDS011;2769;49.864;8.656;2023-01-19T07:20:15;19.63;;;12.03;;
5493;SDS011;2769;49.864;8.656;2023-01-19T07:22:44;19.07;;;11.90;;
5493;SDS011;2769;49.864;8.656;2023-01-19T07:25:12;20.10;;;12.60;;
5493;SDS011;2769;49.864;8.656;2023-01-19T07:27:40;18.10;;;11.70;;
5493;SDS011;2769;49.864;8.656;2023-01-19T07:30:10;22.40;;;11.90;;
5493;SDS011;2769;49.864;8.656;2023-01-19T07:32:42;24.03;;;11.00;;
5493;SDS011;2769;49.864;8.656;2023-01-19T07:35:10;25.00;;;13.20;;
5493;SDS011;2769;49.864;8.656;2023-01-19T07:37:38;19.43;;;12.27;;
5493;SDS011;2769;49.864;8.656;2023-01-19T07:40:06;16.73;;;10.50;;
5493;SDS011;2769;49.864;8.656;2023-01-19T07:42:36;21.90;;;12.30;;
5493;SDS011;2769;49.864;8.656;2023-01-19T07:45:04;20.27;;;12.10;;
5493;SDS011;2769;49.864;8.656;2023-01-19T07:47:33;19.30;;;12.30;;
5493;SDS011;2769;49.864;8.656;2023-01-19T07:50:02;18.83;;;12.37;;
5493;SDS011;2769;49.864;8.656;2023-01-19T07:52:30;23.47;;;13.53;;
5493;SDS011;2769;49.864;8.656;2023-01-19T07:54:58;23.90;;;13.30;;
5493;SDS011;2769;49.864;8.656;2023-01-19T07:57:26;28.53;;;12.80;;
5493;SDS011;2769;49.864;8.656;2023-01-19T07:59:54;21.90;;;12.10;;
5493;SDS011;2769;49.864;8.656;2023-01-19T08:02:22;24.30;;;13.27;;
5493;SDS011;2769;49.864;8.656;2023-01-19T08:04:51;18.77;;;10.80;;
5493;SDS011;2769;49.864;8.656;2023-01-19T08:07:20;24.10;;;12.80;;
5493;SDS011;2769;49.864;8.656;2023-01-19T08:09:48;22.87;;;12.90;;
5493;SDS011;2769;49.864;8.656;2023-01-19T08:12:16;21.30;;;13.50;;
5493;SDS011;2769;49.864;8.656;2023-01-19T08:14:44;18.07;;;13.20;;
5493;SDS011;2769;49.864;8.656;2023-01-19T08:17:12;25.70;;;14.07;;
5493;SDS011;2769;49.864;8.656;2023-01-19T08:19:41;22.63;;;12.60;;
5493;SDS011;2769;49.864;8.656;2023-01-19T08:22:08;26.43;;;13.43;;
5493;SDS011;2769;49.864;8.656;2023-01-19T08:24:38;22.60;;;12.40;;
5493;SDS011;2769;49.864;8.656;2023-01-19T08:27:06;23.33;;;13.93;;
5493;SDS011;2769;49.864;8.656;2023-01-19T08:29:35;19.17;;;12.33;;
5493;SDS011;2769;49.864;8.656;2023-01-19T08:32:03;23.43;;;12.57;;
5493;SDS011;2769;49.864;8.656;2023-01-19T08:34:32;20.60;;;12.97;;
5493;SDS011;2769;49.864;8.656;2023-01-19T08:37:00;23.00;;;13.13;;
5493;SDS011;2769;49.864;8.656;2023-01-19T08:39:28;20.20;;;13.30;;
5493;SDS011;2769;49.864;8.656;2023-01-19T08:41:58;21.20;;;12.60;;
5493;SDS011;2769;49.864;8.656;2023-01-19T08:44:26;19.13;;;12.30;;
5493;SDS011;2769;49.864;8.656;2023-01-19T08:46:54;20.80;;;12.03;;
5493;SDS011;2769;49.864;8.656;2023-01-19T08:49:22;20.03;;;11.30;;
5493;SDS011;2769;49.864;8.656;2023-01-19T08:51:50;26.30;;;11.93;;
5493;SDS011;2769;49.864;8.656;2023-01-19T08:54:18;15.03;;;8.70;;
5493;SDS011;2769;49.864;8.656;2023-01-19T08:56:47;21.53;;;11.90;;
5493;SDS011;2769;49.864;8.656;2023-01-19T08:59:16;20.40;;;11.17;;
5493;SDS011;2769;49.864;8.656;2023-01-19T09:01:44;17.33;;;10.00;;
5493;SDS011;2769;49.864;8.656;2023-01-19T09:04:12;15.20;;;10.50;;
5493;SDS011;2769;49.864;8.656;2023-01-19T09:06:40;24.30;;;12.93;;
5493;SDS011;2769;49.864;8.656;2023-01-19T09:09:08;16.27;;;11.17;;
5493;SDS011;2769;49.864;8.656;2023-01-19T09:11:36;17.80;;;11.53;;
5493;SDS011;2769;49.864;8.656;2023-01-19T09:14:04;20.40;;;11.17;;
5493;SDS011;2769;49.864;8.656;2023-01-19T09:16:33;16.57;;;9.60;;
5493;SDS011;2769;49.864;8.656;2023-01-19T09:19:01;19.73;;;11.57;;
5493;SDS011;2769;49.864;8.656;2023-01-19T09:21:29;16.50;;;11.37;;
5493;SDS011;2769;49.864;8.656;2023-01-19T09:23:57;20.07;;;10.67;;
5493;SDS011;2769;49.864;8.656;2023-01-19T09:26:26;16.93;;;10.80;;
5493;SDS011;2769;49.864;8.656;2023-01-19T09:28:54;16.30;;;10.70;;
5493;SDS011;2769;49.864;8.656;2023-01-19T09:31:22;19.53;;;10.77;;
5493;SDS011;2769;49.864;8.656;2023-01-19T09:33:51;16.67;;;9.67;;
5493;SDS011;2769;49.864;8.656;2023-01-19T09:36:19;16.93;;;10.93;;
5493;SDS011;2769;49.864;8.656;2023-01-19T09:38:47;19.37;;;11.33;;
5493;SDS011;2769;49.864;8.656;2023-01-19T09:41:16;17.40;;;11.10;;
5493;SDS011;2769;49.864;8.656;2023-01-19T09:43:48;15.33;;;10.53;;
5493;SDS011;2769;49.864;8.656;2023-01-19T09:46:19;14.90;;;10.17;;
5493;SDS011;2769;49.864;8.656;2023-01-19T09:48:52;16.57;;;10.90;;
5493;SDS011;2769;49.864;8.656;2023-01-19T09:51:22;16.60;;;11.30;;
5493;SDS011;2769;49.864;8.656;2023-01-19T09:53:55;18.57;;;11.27;;
5493;SDS011;2769;49.864;8.656;2023-01-19T09:56:27;18.63;;;10.93;;
5493;SDS011;2769;49.864;8.656;2023-01-19T09:58:56;23.30;;;11.43;;
5493;SDS011;2769;49.864;8.656;2023-01-19T10:01:39;17.47;;;11.20;;
5493;SDS011;2769;49.864;8.656;2023-01-19T10:04:25;17.63;;;10.67;;
5493;SDS011;2769;49.864;8.656;2023-01-19T10:06:57;13.83;;;9.60;;
5493;SDS011;2769;49.864;8.656;2023-01-19T10:09:31;16.13;;;8.90;;
5493;SDS011;2769;49.864;8.656;2023-01-19T10:12:03;16.77;;;10.10;;
5493;SDS011;2769;49.864;8.656;2023-01-19T10:14:35;21.43;;;8.97;;
5493;SDS011;2769;49.864;8.656;2023-01-19T10:17:12;15.03;;;10.63;;
5493;SDS011;2769;49.864;8.656;2023-01-19T10:19:50;13.13;;;9.40;;
5493;SDS011;2769;49.864;8.656;2023-01-19T10:22:21;16.13;;;9.93;;
5493;SDS011;2769;49.864;8.656;2023-01-19T10:24:51;16.57;;;9.80;;
5493;SDS011;2769;49.864;8.656;2023-01-19T10:27:22;14.97;;;10.30;;
5493;SDS011;2769;49.864;8.656;2023-01-19T10:29:52;14.70;;;10.83;;
5493;SDS011;2769;49.864;8.656;2023-01-19T10:32:21;16.83;;;11.60;;
5493;SDS011;2769;49.864;8.656;2023-01-19T10:34:51;17.90;;;10.73;;
5493;SDS011;2769;49.864;8.656;2023-01-19T10:37:24;16.93;;;11.47;;
5493;SDS011;2769;49.864;8.656;2023-01-19T10:39:56;16.10;;;11.53;;
5493;SDS011;2769;49.864;8.656;2023-01-19T10:42:28;16.77;;;10.63;;
5493;SDS011;2769;49.864;8.656;2023-01-19T10:44:57;19.20;;;10.80;;
5493;SDS011;2769;49.864;8.656;2023-01-19T10:47:28;18.50;;;10.80;;
5493;SDS011;2769;49.864;8.656;2023-01-19T10:49:59;21.83;;;11.43;;
5493;SDS011;2769;49.864;8.656;2023-01-19T10:52:28;16.03;;;11.20;;
5493;SDS011;2769;49.864;8.656;2023-01-19T10:55:00;20.00;;;11.00;;
5493;SDS011;2769;49.864;8.656;2023-01-19T10:57:30;14.40;;;10.10;;
5493;SDS011;2769;49.864;8.656;2023-01-19T10:59:59;13.73;;;9.70;;
5493;SDS011;2769;49.864;8.656;2023-01-19T11:02:28;17.63;;;11.03;;
5493;SDS011;2769;49.864;8.656;2023-01-19T11:04:58;15.50;;;10.87;;
5493;SDS011;2769;49.864;8.656;2023-01-19T11:07:29;16.67;;;10.60;;
5493;SDS011;2769;49.864;8.656;2023-01-19T11:10:12;21.00;;;10.80;;
5493;SDS011;2769;49.864;8.656;2023-01-19T11:12:52;14.37;;;10.53;;
5493;SDS011;2769;49.864;8.656;2023-01-19T11:15:24;14.40;;;9.90;;
5493;SDS011;2769;49.864;8.656;2023-01-19T11:17:56;19.07;;;11.70;;
5493;SDS011;2769;49.864;8.656;2023-01-19T11:20:26;26.27;;;12.10;;
5493;SDS011;2769;49.864;8.656;2023-01-19T11:23:03;20.47;;;11.60;;
5493;SDS011;2769;49.864;8.656;2023-01-19T11:25:33;20.70;;;11.93;;
5493;SDS011;2769;49.864;8.656;2023-01-19T11:28:01;17.80;;;11.60;;
5493;SDS011;2769;49.864;8.656;2023-01-19T11:30:34;20.20;;;10.97;;
5493;SDS011;2769;49.864;8.656;2023-01-19T11:33:03;18.80;;;11.30;;
5493;SDS011;2769;49.864;8.656;2023-01-19T11:35:34;19.50;;;12.83;;
5493;SDS011;2769;49.864;8.656;2023-01-19T11:38:09;22.53;;;13.47;;
5493;SDS011;2769;49.864;8.656;2023-01-19T11:40:48;22.77;;;13.87;;
5493;SDS011;2769;49.864;8.656;2023-01-19T11:43:18;19.60;;;11.93;;
5493;SDS011;2769;49.864;8.656;2023-01-19T11:45:48;21.63;;;12.70;;
5493;SDS011;2769;49.864;8.656;2023-01-19T11:48:17;18.53;;;11.77;;
5493;SDS011;2769;49.864;8.656;2023-01-19T11:50:53;19.63;;;11.30;;
5493;SDS011;2769;49.864;8.656;2023-01-19T11:53:22;14.33;;;9.17;;
5493;SDS011;2769;49.864;8.656;2023-01-19T11:55:52;18.87;;;11.03;;
5493;SDS011;2769;49.864;8.656;2023-01-19T11:58:23;16.80;;;10.87;;
5493;SDS011;2769;49.864;8.656;2023-01-19T12:00:53;15.93;;;8.73;;
5493;SDS011;2769;49.864;8.656;2023-01-19T12:03:24;13.73;;;9.53;;
5493;SDS011;2769;49.864;8.656;2023-01-19T12:05:59;11.97;;;9.67;;
5493;SDS011;2769;49.864;8.656;2023-01-19T12:08:33;14.17;;;9.53;;
5493;SDS011;2769;49.864;8.656;2023-01-19T12:11:02;16.67;;;10.23;;
5493;SDS011;2769;49.864;8.656;2023-01-19T12:13:32;18.33;;;10.93;;
5493;SDS011;2769;49.864;8.656;2023-01-19T12:16:03;14.93;;;9.93;;
5493;SDS011;2769;49.864;8.656;2023-01-19T12:18:33;16.97;;;11.00;;
5493;SDS011;2769;49.864;8.656;2023-01-19T12:21:04;21.30;;;11.23;;
5493;SDS011;2769;49.864;8.656;2023-01-19T12:23:43;16.83;;;11.27;;
5493;SDS011;2769;49.864;8.656;2023-01-19T12:26:22;17.13;;;10.33;;
5493;SDS011;2769;49.864;8.656;2023-01-19T12:28:54;20.03;;;11.70;;
5493;SDS011;2769;49.864;8.656;2023-01-19T12:31:24;18.77;;;11.47;;
5493;SDS011;2769;49.864;8.656;2023-01-19T12:33:52;16.73;;;10.00;;
5493;SDS011;2769;49.864;8.656;2023-01-19T12:36:37;18.87;;;10.83;;
5493;SDS011;2769;49.864;8.656;2023-01-19T12:39:17;18.00;;;10.07;;
5493;SDS011;2769;49.864;8.656;2023-01-19T12:41:46;19.37;;;11.27;;
5493;SDS011;2769;49.864;8.656;2023-01-19T12:44:20;15.83;;;11.37;;
5493;SDS011;2769;49.864;8.656;2023-01-19T12:46:56;19.37;;;12.97;;
5493;SDS011;2769;49.864;8.656;2023-01-19T12:49:30;19.40;;;11.73;;
5493;SDS011;2769;49.864;8.656;2023-01-19T12:52:13;21.10;;;12.37;;
5493;SDS011;2769;49.864;8.656;2023-01-19T12:54:51;21.40;;;14.07;;
5493;SDS011;2769;49.864;8.656;2023-01-19T12:57:23;19.80;;;12.33;;
5493;SDS011;2769;49.864;8.656;2023-01-19T12:59:54;19.70;;;13.00;;
5493;SDS011;2769;49.864;8.656;2023-01-19T13:08:30;21.80;;;11.37;;
5493;SDS011;2769;49.864;8.656;2023-01-19T13:11:24;16.37;;;11.07;;
5493;SDS011;2769;49.864;8.656;2023-01-19T13:19:57;19.33;;;10.73;;
5493;SDS011;2769;49.864;8.656;2023-01-19T13:22:51;16.73;;;9.40;;
5493;SDS011;2769;49.864;8.656;2023-01-19T13:25:45;25.50;;;11.27;;
5493;SDS011;2769;49.864;8.656;2023-01-19T13:28:15;18.13;;;10.90;;
5493;SDS011;2769;49.864;8.656;2023-01-19T13:30:52;19.87;;;10.70;;
5493;SDS011;2769;49.864;8.656;2023-01-19T13:33:23;20.90;;;11.27;;
5493;SDS011;2769;49.864;8.656;2023-01-19T13:35:53;14.10;;;9.93;;
5493;SDS011;2769;49.864;8.656;2023-01-19T13:38:22;23.10;;;12.57;;
5493;SDS011;2769;49.864;8.656;2023-01-19T13:40:52;18.67;;;11.23;;
5493;SDS011;2769;49.864;8.656;2023-01-19T13:43:23;18.87;;;11.20;;
5493;SDS011;2769;49.864;8.656;2023-01-19T13:45:54;18.70;;;11.20;;
5493;SDS011;2769;49.864;8.656;2023-01-19T13:48:22;21.90;;;11.17;;
5493;SDS011;2769;49.864;8.656;2023-01-19T13:50:58;16.60;;;10.97;;
5493;SDS011;2769;49.864;8.656;2023-01-19T13:53:27;16.43;;;10.53;;
5493;SDS011;2769;49.864;8.656;2023-01-19T13:56:18;18.80;;;10.23;;
5493;SDS011;2769;49.864;8.656;2023-01-19T13:58:58;19.07;;;10.57;;
5493;SDS011;2769;49.864;8.656;2023-01-19T14:01:32;16.13;;;10.80;;
5493;SDS011;2769;49.864;8.656;2023-01-19T14:04:00;16.37;;;10.80;;
5493;SDS011;2769;49.864;8.656;2023-01-19T14:06:32;15.20;;;11.07;;
5493;SDS011;2769;49.864;8.656;2023-01-19T14:09:13;18.37;;;10.83;;
5493;SDS011;2769;49.864;8.656;2023-01-19T14:11:45;17.13;;;10.60;;
5493;SDS011;2769;49.864;8.656;2023-01-19T14:14:21;19.03;;;11.87;;
5493;SDS011;2769;49.864;8.656;2023-01-19T14:16:50;19.30;;;11.60;;
5493;SDS011;2769;49.864;8.656;2023-01-19T14:19:18;19.23;;;11.00;;
5493;SDS011;2769;49.864;8.656;2023-01-19T14:21:46;19.33;;;11.90;;
5493;SDS011;2769;49.864;8.656;2023-01-19T14:24:25;19.43;;;10.23;;
5493;SDS011;2769;49.864;8.656;2023-01-19T14:27:07;26.13;;;10.20;;
5493;SDS011;2769;49.864;8.656;2023-01-19T14:29:39;18.20;;;11.00;;
5493;SDS011;2769;49.864;8.656;2023-01-19T14:32:12;22.73;;;11.07;;
5493;SDS011;2769;49.864;8.656;2023-01-19T14:34:41;21.83;;;11.77;;
5493;SDS011;2769;49.864;8.656;2023-01-19T14:37:14;16.90;;;9.77;;
5493;SDS011;2769;49.864;8.656;2023-01-19T14:39:48;19.17;;;10.30;;
5493;SDS011;2769;49.864;8.656;2023-01-19T14:42:24;22.37;;;11.50;;
5493;SDS011;2769;49.864;8.656;2023-01-19T14:44:54;15.33;;;11.00;;
5493;SDS011;2769;49.864;8.656;2023-01-19T14:47:32;16.40;;;10.20;;
5493;SDS011;2769;49.864;8.656;2023-01-19T14:50:07;21.60;;;10.77;;
5493;SDS011;2769;49.864;8.656;2023-01-19T14:52:47;20.43;;;10.53;;
5493;SDS011;2769;49.864;8.656;2023-01-19T14:55:18;15.60;;;10.40;;
5493;SDS011;2769;49.864;8.656;2023-01-19T14:57:48;18.23;;;10.93;;
5493;SDS011;2769;49.864;8.656;2023-01-19T15:00:17;17.00;;;10.20;;
5493;SDS011;2769;49.864;8.656;2023-01-19T15:02:47;17.20;;;11.27;;
5493;SDS011;2769;49.864;8.656;2023-01-19T15:05:15;19.00;;;8.17;;
5493;SDS011;2769;49.864;8.656;2023-01-19T15:07:44;20.53;;;10.67;;
5493;SDS011;2769;49.864;8.656;2023-01-19T15:10:16;15.00;;;10.13;;
5493;SDS011;2769;49.864;8.656;2023-01-19T15:12:46;13.87;;;10.47;;
5493;SDS011;2769;49.864;8.656;2023-01-19T15:15:17;23.80;;;10.53;;
5493;SDS011;2769;49.864;8.656;2023-01-19T15:17:48;17.20;;;10.03;;
5493;SDS011;2769;49.864;8.656;2023-01-19T15:20:17;15.97;;;10.20;;
5493;SDS011;2769;49.864;8.656;2023-01-19T15:22:46;17.27;;;10.80;;
5493;SDS011;2769;49.864;8.656;2023-01-19T15:25:15;20.53;;;11.07;;
5493;SDS011;2769;49.864;8.656;2023-01-19T15:27:44;15.83;;;10.20;;
5493;SDS011;2769;49.864;8.656;2023-01-19T15:30:18;13.27;;;8.83;;